createdAt,value
2022-10-23T00:00:30.784Z,0.00
2022-10-23T00:01:30.739Z,0.00
2022-10-23T00:02:30.749Z,0.00
2022-10-23T00:03:30.738Z,0.00
2022-10-23T00:04:30.673Z,0.00
2022-10-23T00:05:30.668Z,0.00
2022-10-23T00:06:30.693Z,0.00
2022-10-23T00:08:30.643Z,0.00
2022-10-23T00:09:30.671Z,0.00
2022-10-23T00:10:30.614Z,0.00
2022-10-23T00:11:30.599Z,0.00
2022-10-23T00:12:30.608Z,0.00
2022-10-23T00:13:30.591Z,0.00
2022-10-23T00:14:30.572Z,0.00
2022-10-23T00:15:30.581Z,0.00
2022-10-23T00:16:30.523Z,0.00
2022-10-23T00:17:30.552Z,0.00
2022-10-23T00:18:30.521Z,0.00
2022-10-23T00:19:30.511Z,0.00
2022-10-23T00:20:30.538Z,0.00
2022-10-23T00:21:30.486Z,0.00
2022-10-23T00:22:30.469Z,0.00
2022-10-23T00:23:30.485Z,0.00
2022-10-23T00:24:30.487Z,0.00
2022-10-23T00:25:30.439Z,0.00
2022-10-23T00:26:30.437Z,0.00
2022-10-23T00:27:30.414Z,0.00
2022-10-23T00:28:30.416Z,0.00
2022-10-23T00:29:30.392Z,0.00
2022-10-23T00:30:30.407Z,0.00
2022-10-23T00:31:30.396Z,0.00
2022-10-23T00:33:30.344Z,0.00
2022-10-23T00:34:30.327Z,0.00
2022-10-23T00:35:30.305Z,0.00
2022-10-23T00:36:30.346Z,0.00
2022-10-23T00:37:30.286Z,0.00
2022-10-23T00:38:30.288Z,0.00
2022-10-23T00:39:30.281Z,0.00
2022-10-23T00:40:30.264Z,0.00
2022-10-23T00:41:30.267Z,0.00
2022-10-23T00:42:30.285Z,0.00
2022-10-23T00:43:30.234Z,0.00
2022-10-23T00:44:30.248Z,0.00
2022-10-23T00:45:30.211Z,0.00
2022-10-23T00:46:30.231Z,0.00
2022-10-23T00:47:30.212Z,0.00
2022-10-23T00:48:30.158Z,0.00
2022-10-23T00:49:31.667Z,0.00
2022-10-23T00:50:30.139Z,0.00
2022-10-23T00:51:30.149Z,0.00
2022-10-23T00:52:30.202Z,0.00
2022-10-23T00:53:30.109Z,0.00
2022-10-23T00:54:30.090Z,0.00
2022-10-23T00:55:30.098Z,0.00
2022-10-23T00:56:30.070Z,0.00
2022-10-23T00:57:30.090Z,0.00
2022-10-23T00:58:30.085Z,0.00
2022-10-23T00:59:30.039Z,0.00
2022-10-23T01:00:30.044Z,0.00
2022-10-23T01:01:30.127Z,0.00
2022-10-23T01:02:30.071Z,0.00
2022-10-23T01:03:30.026Z,0.00
2022-10-23T01:04:30.016Z,0.00
2022-10-23T01:05:29.975Z,0.00
2022-10-23T01:06:29.954Z,0.00
2022-10-23T01:07:29.963Z,0.00
2022-10-23T01:08:29.947Z,0.00
2022-10-23T01:09:29.961Z,0.00
2022-10-23T01:10:29.934Z,0.00
2022-10-23T01:11:29.948Z,0.00
2022-10-23T01:12:29.885Z,0.00
2022-10-23T01:13:29.880Z,0.00
2022-10-23T01:14:29.870Z,0.00
2022-10-23T01:15:29.866Z,0.00
2022-10-23T01:16:29.836Z,0.00
2022-10-23T01:17:29.868Z,0.00
2022-10-23T01:18:29.836Z,0.00
2022-10-23T01:19:29.847Z,0.00
2022-10-23T01:20:29.807Z,0.00
2022-10-23T01:21:29.786Z,0.00
2022-10-23T01:22:29.791Z,0.00
2022-10-23T01:23:29.766Z,0.00
2022-10-23T01:24:29.748Z,0.00
2022-10-23T01:25:29.788Z,0.00
2022-10-23T01:26:29.760Z,0.00
2022-10-23T01:27:29.766Z,0.00
2022-10-23T01:28:29.702Z,0.00
2022-10-23T01:29:29.713Z,0.00
2022-10-23T01:30:29.802Z,0.00
2022-10-23T01:31:29.727Z,0.00
2022-10-23T01:32:29.678Z,0.00
2022-10-23T01:33:29.680Z,0.00
2022-10-23T01:34:29.659Z,0.00
2022-10-23T01:35:29.649Z,0.00
2022-10-23T01:36:29.642Z,0.00
2022-10-23T01:37:29.623Z,0.00
2022-10-23T01:38:29.622Z,0.00
2022-10-23T01:39:29.611Z,0.00
2022-10-23T01:40:29.642Z,0.00
2022-10-23T01:41:29.542Z,0.00
2022-10-23T01:42:29.567Z,0.00
2022-10-23T01:43:29.561Z,0.00
2022-10-23T01:44:29.532Z,0.00
2022-10-23T01:45:29.503Z,0.00
2022-10-23T01:46:29.527Z,0.00
2022-10-23T01:47:29.499Z,0.00
2022-10-23T01:48:29.508Z,0.00
2022-10-23T01:49:29.454Z,0.00
2022-10-23T01:50:29.445Z,0.00
2022-10-23T01:51:29.453Z,0.00
2022-10-23T01:52:29.458Z,0.00
2022-10-23T01:53:29.460Z,0.00
2022-10-23T01:54:29.414Z,0.00
2022-10-23T01:55:29.439Z,0.00
2022-10-23T01:56:29.391Z,0.00
2022-10-23T01:57:29.440Z,0.00
2022-10-23T01:58:29.402Z,0.00
2022-10-23T01:59:29.361Z,0.00
2022-10-23T02:00:29.359Z,0.00
2022-10-23T02:01:29.438Z,0.00
2022-10-23T02:02:29.342Z,0.00
2022-10-23T02:03:29.363Z,0.00
2022-10-23T02:04:29.303Z,0.00
2022-10-23T02:05:29.284Z,0.00
2022-10-23T02:06:29.292Z,0.00
2022-10-23T02:07:29.294Z,0.00
2022-10-23T02:08:29.283Z,0.00
2022-10-23T02:09:29.273Z,0.00
2022-10-23T02:10:29.241Z,0.00
2022-10-23T02:11:29.224Z,0.00
2022-10-23T02:12:29.208Z,0.00
2022-10-23T02:13:29.241Z,0.00
2022-10-23T02:14:29.195Z,0.00
2022-10-23T02:15:29.176Z,0.00
2022-10-23T02:16:29.162Z,0.00
2022-10-23T02:17:29.157Z,0.00
2022-10-23T02:18:29.136Z,0.00
2022-10-23T02:19:29.144Z,0.00
2022-10-23T02:20:29.126Z,0.00
2022-10-23T02:21:29.126Z,0.00
2022-10-23T02:22:29.096Z,0.00
2022-10-23T02:23:29.088Z,0.00
2022-10-23T02:24:29.064Z,0.00
2022-10-23T02:25:29.105Z,0.00
2022-10-23T02:26:29.034Z,0.00
2022-10-23T02:27:29.039Z,0.00
2022-10-23T02:28:29.005Z,0.00
2022-10-23T02:29:29.010Z,0.00
2022-10-23T02:30:28.998Z,0.00
2022-10-23T02:31:29.036Z,0.00
2022-10-23T02:32:28.986Z,0.00
2022-10-23T02:33:28.947Z,0.00
2022-10-23T02:34:28.936Z,0.00
2022-10-23T02:35:28.966Z,0.00
2022-10-23T02:36:28.958Z,0.00
2022-10-23T02:37:28.918Z,0.00
2022-10-23T02:38:28.914Z,0.00
2022-10-23T02:39:28.887Z,0.00
2022-10-23T02:40:28.892Z,0.00
2022-10-23T02:41:28.933Z,0.00
2022-10-23T02:42:28.857Z,0.00
2022-10-23T02:43:28.862Z,0.00
2022-10-23T02:44:28.819Z,0.00
2022-10-23T02:45:28.844Z,0.00
2022-10-23T02:46:28.872Z,0.00
2022-10-23T02:47:28.812Z,0.00
2022-10-23T02:48:28.779Z,0.00
2022-10-23T02:49:28.772Z,0.00
2022-10-23T02:50:28.762Z,0.00
2022-10-23T02:51:28.779Z,0.00
2022-10-23T02:52:28.778Z,0.00
2022-10-23T02:53:28.712Z,0.00
2022-10-23T02:54:28.719Z,0.00
2022-10-23T02:55:28.728Z,0.00
2022-10-23T02:56:28.736Z,0.00
2022-10-23T02:57:28.696Z,0.00
2022-10-23T02:58:28.692Z,0.00
2022-10-23T02:59:28.667Z,0.00
2022-10-23T03:00:28.687Z,0.00
2022-10-23T03:01:28.753Z,0.00
2022-10-23T03:02:28.710Z,0.00
2022-10-23T03:03:28.605Z,0.00
2022-10-23T03:04:28.637Z,0.00
2022-10-23T03:05:28.638Z,0.00
2022-10-23T03:06:28.599Z,0.00
2022-10-23T03:07:28.599Z,0.00
2022-10-23T03:08:28.583Z,0.00
2022-10-23T03:09:28.559Z,0.00
2022-10-23T03:10:28.566Z,0.00
2022-10-23T03:11:28.532Z,0.00
2022-10-23T03:12:28.520Z,0.00
2022-10-23T03:13:28.517Z,0.00
2022-10-23T03:14:28.510Z,0.00
2022-10-23T03:15:28.478Z,0.00
2022-10-23T03:16:28.499Z,0.00
2022-10-23T03:17:28.486Z,0.00
2022-10-23T03:18:28.461Z,0.00
2022-10-23T03:19:28.433Z,0.00
2022-10-23T03:20:28.447Z,0.00
2022-10-23T03:21:28.432Z,0.00
2022-10-23T03:22:28.389Z,0.00
2022-10-23T03:23:28.374Z,0.00
2022-10-23T03:24:28.399Z,0.00
2022-10-23T03:25:28.399Z,0.00
2022-10-23T03:26:28.385Z,0.00
2022-10-23T03:28:28.334Z,0.00
2022-10-23T03:29:28.347Z,0.00
2022-10-23T03:30:28.291Z,0.00
2022-10-23T03:31:28.294Z,0.00
2022-10-23T03:32:28.316Z,0.00
2022-10-23T03:33:28.262Z,0.00
2022-10-23T03:34:28.263Z,0.00
2022-10-23T03:35:28.288Z,0.00
2022-10-23T03:36:28.254Z,0.00
2022-10-23T03:37:28.236Z,0.00
2022-10-23T03:38:28.205Z,0.00
2022-10-23T03:39:28.227Z,0.00
2022-10-23T03:40:28.175Z,0.00
2022-10-23T03:41:28.194Z,0.00
2022-10-23T03:42:28.175Z,0.00
2022-10-23T03:43:28.189Z,0.00
2022-10-23T03:44:28.137Z,0.00
2022-10-23T03:45:28.135Z,0.00
2022-10-23T03:46:28.128Z,0.00
2022-10-23T03:47:28.096Z,0.00
2022-10-23T03:48:28.125Z,0.00
2022-10-23T03:49:28.101Z,0.00
2022-10-23T03:50:28.080Z,0.00
2022-10-23T03:51:28.078Z,0.00
2022-10-23T03:52:28.062Z,0.00
2022-10-23T03:53:28.079Z,0.00
2022-10-23T03:54:28.048Z,0.00
2022-10-23T03:55:28.015Z,0.00
2022-10-23T03:56:28.016Z,0.00
2022-10-23T03:57:28.003Z,0.00
2022-10-23T03:58:27.971Z,0.00
2022-10-23T03:59:27.979Z,0.00
2022-10-23T04:00:27.962Z,0.00
2022-10-23T04:01:28.140Z,0.00
2022-10-23T04:02:28.012Z,0.00
2022-10-23T04:03:27.933Z,0.00
2022-10-23T04:04:27.907Z,0.00
2022-10-23T04:05:27.901Z,0.00
2022-10-23T04:06:27.900Z,0.00
2022-10-23T04:07:27.916Z,0.00
2022-10-23T04:08:27.862Z,0.00
2022-10-23T04:09:27.852Z,0.00
2022-10-23T04:10:27.883Z,0.00
2022-10-23T04:11:27.835Z,0.00
2022-10-23T04:12:27.856Z,0.00
2022-10-23T04:13:27.811Z,0.00
2022-10-23T04:14:27.828Z,0.00
2022-10-23T04:15:27.803Z,0.00
2022-10-23T04:16:27.763Z,0.00
2022-10-23T04:18:27.795Z,0.00
2022-10-23T04:19:27.726Z,0.00
2022-10-23T04:20:27.739Z,0.00
2022-10-23T04:21:27.718Z,0.00
2022-10-23T04:22:28.582Z,0.00
2022-10-23T04:23:27.685Z,0.00
2022-10-23T04:24:27.725Z,0.00
2022-10-23T04:25:27.708Z,0.00
2022-10-23T04:26:27.646Z,0.00
2022-10-23T04:27:27.649Z,0.00
2022-10-23T04:28:27.636Z,0.00
2022-10-23T04:29:27.617Z,0.00
2022-10-23T04:30:27.671Z,0.00
2022-10-23T04:31:27.623Z,0.00
2022-10-23T04:32:27.591Z,0.00
2022-10-23T04:33:27.596Z,0.00
2022-10-23T04:34:27.617Z,0.00
2022-10-23T04:35:27.611Z,0.00
2022-10-23T04:36:27.565Z,0.00
2022-10-23T04:37:27.527Z,0.00
2022-10-23T04:38:27.522Z,0.00
2022-10-23T04:39:27.523Z,0.00
2022-10-23T04:40:27.510Z,0.00
2022-10-23T04:41:27.510Z,0.00
2022-10-23T04:43:27.486Z,0.00
2022-10-23T04:44:27.441Z,0.00
2022-10-23T04:45:27.501Z,0.00
2022-10-23T04:46:27.454Z,0.00
2022-10-23T04:47:27.446Z,0.00
2022-10-23T04:48:29.180Z,0.00
2022-10-23T04:49:27.410Z,0.00
2022-10-23T04:50:27.397Z,0.00
2022-10-23T04:51:27.415Z,0.00
2022-10-23T04:52:27.383Z,0.00
2022-10-23T04:53:27.347Z,0.00
2022-10-23T04:54:27.323Z,0.00
2022-10-23T04:55:27.324Z,0.00
2022-10-23T04:56:27.338Z,0.00
2022-10-23T04:57:27.324Z,0.00
2022-10-23T04:58:27.312Z,0.00
2022-10-23T04:59:27.298Z,0.00
2022-10-23T05:00:27.406Z,0.00
2022-10-23T05:01:27.423Z,0.00
2022-10-23T05:02:27.235Z,0.00
2022-10-23T05:03:27.298Z,0.00
2022-10-23T05:04:27.230Z,0.00
2022-10-23T05:05:27.239Z,0.00
2022-10-23T05:06:27.231Z,0.00
2022-10-23T05:07:27.203Z,0.00
2022-10-23T05:08:27.180Z,0.00
2022-10-23T05:09:27.157Z,0.00
2022-10-23T05:10:27.179Z,0.00
2022-10-23T05:11:27.171Z,0.00
2022-10-23T05:12:27.118Z,0.00
2022-10-23T05:13:27.132Z,0.00
2022-10-23T05:14:27.112Z,0.00
2022-10-23T05:15:27.110Z,0.00
2022-10-23T05:16:27.099Z,0.00
2022-10-23T05:17:27.060Z,4.00
2022-10-23T05:18:27.050Z,4.00
2022-10-23T05:19:27.083Z,0.00
2022-10-23T05:20:27.060Z,0.00
2022-10-23T05:21:27.024Z,4.00
2022-10-23T05:22:27.037Z,4.00
2022-10-23T05:23:27.002Z,0.00
2022-10-23T05:24:26.996Z,8.00
2022-10-23T05:25:27.069Z,4.00
2022-10-23T05:26:26.975Z,8.00
2022-10-23T05:27:26.974Z,4.00
2022-10-23T05:28:26.961Z,8.00
2022-10-23T05:29:26.932Z,8.00
2022-10-23T05:30:26.936Z,8.00
2022-10-23T05:31:26.947Z,12.00
2022-10-23T05:32:26.931Z,16.00
2022-10-23T05:33:26.887Z,20.00
2022-10-23T05:34:26.880Z,20.00
2022-10-23T05:35:26.891Z,28.00
2022-10-23T05:36:26.887Z,36.00
2022-10-23T05:37:26.849Z,44.00
2022-10-23T05:38:26.838Z,48.00
2022-10-23T05:39:26.832Z,56.00
2022-10-23T05:40:26.915Z,64.00
2022-10-23T05:41:26.864Z,76.00
2022-10-23T05:42:26.840Z,84.00
2022-10-23T05:43:26.828Z,88.00
2022-10-23T05:44:26.781Z,92.00
2022-10-23T05:45:26.760Z,104.00
2022-10-23T05:46:26.749Z,112.00
2022-10-23T05:47:26.779Z,124.00
2022-10-23T05:48:35.229Z,128.00
2022-10-23T05:49:27.743Z,140.00
2022-10-23T05:50:26.702Z,160.00
2022-10-23T05:51:26.683Z,172.00
2022-10-23T05:52:26.692Z,184.00
2022-10-23T05:53:26.732Z,204.00
2022-10-23T05:54:26.653Z,232.00
2022-10-23T05:55:26.661Z,248.00
2022-10-23T05:56:26.640Z,276.00
2022-10-23T05:57:26.616Z,296.00
2022-10-23T05:58:26.622Z,308.00
2022-10-23T05:59:26.660Z,340.00
2022-10-23T06:00:26.582Z,348.00
2022-10-23T06:01:26.653Z,392.00
2022-10-23T06:02:26.599Z,412.00
2022-10-23T06:03:26.560Z,448.00
2022-10-23T06:04:26.546Z,496.00
2022-10-23T06:05:26.610Z,544.00
2022-10-23T06:06:26.503Z,600.00
2022-10-23T06:07:26.492Z,640.00
2022-10-23T06:08:26.483Z,680.00
2022-10-23T06:09:26.489Z,756.00
2022-10-23T06:10:26.494Z,740.00
2022-10-23T06:11:26.490Z,812.00
2022-10-23T06:12:26.434Z,936.00
2022-10-23T06:13:26.458Z,1084.00
2022-10-23T06:14:26.459Z,1028.00
2022-10-23T06:15:26.428Z,1096.00
2022-10-23T06:16:26.416Z,1268.00
2022-10-23T06:17:26.406Z,1232.00
2022-10-23T06:18:26.375Z,1520.00
2022-10-23T06:19:26.346Z,1288.00
2022-10-23T06:20:28.021Z,1508.00
2022-10-23T06:21:26.372Z,1388.00
2022-10-23T06:22:26.338Z,1584.00
2022-10-23T06:23:26.317Z,1484.00
2022-10-23T06:24:26.311Z,1860.00
2022-10-23T06:25:26.300Z,1900.00
2022-10-23T06:26:26.311Z,2052.00
2022-10-23T06:27:26.290Z,2136.00
2022-10-23T06:28:26.271Z,2052.00
2022-10-23T06:29:26.251Z,2396.00
2022-10-23T06:30:26.296Z,1920.00
2022-10-23T06:31:26.245Z,2368.00
2022-10-23T06:32:26.253Z,2064.00
2022-10-23T06:33:26.199Z,2832.00
2022-10-23T06:34:26.181Z,2732.00
2022-10-23T06:35:26.159Z,2884.00
2022-10-23T06:36:26.163Z,2384.00
2022-10-23T06:37:26.154Z,3068.00
2022-10-23T06:38:26.198Z,2828.00
2022-10-23T06:39:28.509Z,3076.00
2022-10-23T06:40:27.121Z,2768.00
2022-10-23T06:41:26.106Z,2880.00
2022-10-23T06:42:26.111Z,2784.00
2022-10-23T06:43:26.092Z,2356.00
2022-10-23T06:44:26.063Z,3288.00
2022-10-23T06:45:26.082Z,2604.00
2022-10-23T06:46:26.057Z,3192.00
2022-10-23T06:47:26.032Z,2916.00
2022-10-23T06:48:26.085Z,3240.00
2022-10-23T06:49:26.037Z,2824.00
2022-10-23T06:50:26.024Z,3036.00
2022-10-23T06:51:26.017Z,2880.00
2022-10-23T06:52:45.981Z,2860.00
2022-10-23T06:53:27.005Z,2552.00
2022-10-23T06:54:25.955Z,2440.00
2022-10-23T06:55:26.015Z,2324.00
2022-10-23T06:56:25.941Z,1944.00
2022-10-23T06:57:25.914Z,1876.00
2022-10-23T06:58:25.920Z,1932.00
2022-10-23T06:59:25.929Z,2120.00
2022-10-23T07:00:25.909Z,2040.00
2022-10-23T07:01:26.187Z,2436.00
2022-10-23T07:02:25.850Z,2360.00
2022-10-23T07:03:25.846Z,2544.00
2022-10-23T07:04:25.871Z,2388.00
2022-10-23T07:05:25.847Z,2120.00
2022-10-23T07:06:25.851Z,2116.00
2022-10-23T07:07:25.811Z,2332.00
2022-10-23T07:08:25.831Z,2064.00
2022-10-23T07:09:25.813Z,2348.00
2022-10-23T07:10:25.803Z,2496.00
2022-10-23T07:11:25.773Z,2780.00
2022-10-23T07:12:25.762Z,2880.00
2022-10-23T07:13:25.753Z,2872.00
2022-10-23T07:14:25.784Z,4424.00
2022-10-23T07:15:25.740Z,4572.00
2022-10-23T07:16:25.724Z,3964.00
2022-10-23T07:17:25.694Z,4588.00
2022-10-23T07:18:25.735Z,5736.00
2022-10-23T07:19:25.706Z,6284.00
2022-10-23T07:20:25.644Z,6316.00
2022-10-23T07:21:25.651Z,7228.00
2022-10-23T07:22:25.632Z,7364.00
2022-10-23T07:23:25.627Z,6600.00
2022-10-23T07:24:25.664Z,7240.00
2022-10-23T07:25:25.631Z,5036.00
2022-10-23T07:26:25.583Z,9820.00
2022-10-23T07:27:25.586Z,7084.00
2022-10-23T07:28:25.586Z,6244.00
2022-10-23T07:29:25.543Z,6704.00
2022-10-23T07:30:25.691Z,5564.00
2022-10-23T07:31:27.980Z,5976.00
2022-10-23T07:32:25.518Z,6332.00
2022-10-23T07:33:25.496Z,7424.00
2022-10-23T07:34:25.520Z,7008.00
2022-10-23T07:35:25.509Z,7984.00
2022-10-23T07:36:25.495Z,8580.00
2022-10-23T07:37:25.458Z,7724.00
2022-10-23T07:38:25.448Z,8756.00
2022-10-23T07:39:25.439Z,7764.00
2022-10-23T07:40:25.511Z,9252.00
2022-10-23T07:41:25.418Z,8700.00
2022-10-23T07:42:25.449Z,8708.00
2022-10-23T07:43:25.460Z,8248.00
2022-10-23T07:44:27.642Z,9388.00
2022-10-23T07:45:25.381Z,8568.00
2022-10-23T07:46:25.348Z,8448.00
2022-10-23T07:47:25.338Z,8180.00
2022-10-23T07:48:25.388Z,8348.00
2022-10-23T07:49:25.330Z,9004.00
2022-10-23T07:50:25.392Z,8564.00
2022-10-23T07:51:25.294Z,8164.00
2022-10-23T07:52:25.304Z,9148.00
2022-10-23T07:53:25.261Z,8656.00
2022-10-23T07:54:25.299Z,8600.00
2022-10-23T07:55:25.271Z,8508.00
2022-10-23T07:56:25.221Z,8528.00
2022-10-23T07:57:25.234Z,8724.00
2022-10-23T07:58:25.215Z,8764.00
2022-10-23T07:59:25.218Z,8832.00
2022-10-23T08:01:25.269Z,9044.00
2022-10-23T08:02:25.188Z,9036.00
2022-10-23T08:03:25.143Z,8892.00
2022-10-23T08:04:25.177Z,8616.00
2022-10-23T08:05:25.141Z,8452.00
2022-10-23T08:06:25.145Z,8216.00
2022-10-23T08:07:25.168Z,7824.00
2022-10-23T08:08:25.096Z,7640.00
2022-10-23T08:09:25.121Z,7944.00
2022-10-23T08:10:25.065Z,8048.00
2022-10-23T08:11:25.069Z,7552.00
2022-10-23T08:12:25.099Z,7576.00
2022-10-23T08:13:25.080Z,7432.00
2022-10-23T08:14:25.070Z,7440.00
2022-10-23T08:15:25.020Z,7436.00
2022-10-23T08:16:25.026Z,7620.00
2022-10-23T08:17:27.585Z,7952.00
2022-10-23T08:18:24.997Z,7992.00
2022-10-23T08:19:24.981Z,7984.00
2022-10-23T08:20:24.981Z,7788.00
2022-10-23T08:21:24.959Z,7964.00
2022-10-23T08:22:24.930Z,7820.00
2022-10-23T08:23:24.973Z,7984.00
2022-10-23T08:24:24.920Z,8004.00
2022-10-23T08:25:26.063Z,7908.00
2022-10-23T08:26:24.934Z,7600.00
2022-10-23T08:27:24.873Z,7152.00
2022-10-23T08:28:24.884Z,6880.00
2022-10-23T08:29:24.883Z,6548.00
2022-10-23T08:30:24.830Z,6328.00
2022-10-23T08:31:24.834Z,6480.00
2022-10-23T08:32:24.812Z,5708.00
2022-10-23T08:33:24.822Z,5700.00
2022-10-23T08:34:24.841Z,5944.00
2022-10-23T08:35:24.801Z,6776.00
2022-10-23T08:36:24.826Z,6932.00
2022-10-23T08:37:24.761Z,7360.00
2022-10-23T08:38:24.746Z,7780.00
2022-10-23T08:39:24.733Z,8172.00
2022-10-23T08:40:24.776Z,8564.00
2022-10-23T08:41:24.725Z,8932.00
2022-10-23T08:42:24.759Z,9196.00
2022-10-23T08:43:24.688Z,9360.00
2022-10-23T08:44:24.678Z,9488.00
2022-10-23T08:45:24.699Z,9656.00
2022-10-23T08:46:24.699Z,9768.00
2022-10-23T08:47:24.671Z,9636.00
2022-10-23T08:48:24.628Z,9656.00
2022-10-23T08:49:24.648Z,9676.00
2022-10-23T08:50:24.658Z,9732.00
2022-10-23T08:51:24.640Z,9916.00
2022-10-23T08:52:24.620Z,10156.00
2022-10-23T08:53:24.579Z,10184.00
2022-10-23T08:54:24.628Z,10200.00
2022-10-23T08:55:24.551Z,10380.00
2022-10-23T08:56:24.541Z,10256.00
2022-10-23T08:57:24.531Z,10012.00
2022-10-23T08:58:24.543Z,9440.00
2022-10-23T08:59:24.535Z,9384.00
2022-10-23T09:00:24.492Z,9480.00
2022-10-23T09:01:24.621Z,9812.00
2022-10-23T09:02:24.499Z,10248.00
2022-10-23T09:03:24.501Z,11020.00
2022-10-23T09:04:24.484Z,11592.00
2022-10-23T09:05:24.433Z,12268.00
2022-10-23T09:06:24.424Z,12680.00
2022-10-23T09:07:24.414Z,12944.00
2022-10-23T09:08:24.405Z,13136.00
2022-10-23T09:09:24.435Z,13012.00
2022-10-23T09:10:24.376Z,13084.00
2022-10-23T09:11:24.352Z,12820.00
2022-10-23T09:12:24.364Z,12476.00
2022-10-23T09:13:24.347Z,12704.00
2022-10-23T09:14:24.357Z,13236.00
2022-10-23T09:15:24.319Z,13840.00
2022-10-23T09:16:24.304Z,14940.00
2022-10-23T09:17:24.308Z,17568.00
2022-10-23T09:18:24.277Z,22528.00
2022-10-23T09:19:24.282Z,22880.00
2022-10-23T09:20:24.319Z,20320.00
2022-10-23T09:21:24.235Z,19200.00
2022-10-23T09:22:24.301Z,20352.00
2022-10-23T09:23:24.236Z,25216.00
2022-10-23T09:24:24.220Z,26240.00
2022-10-23T09:25:24.216Z,30176.00
2022-10-23T09:26:24.200Z,29248.00
2022-10-23T09:27:24.190Z,29856.00
2022-10-23T09:28:24.190Z,29248.00
2022-10-23T09:29:24.164Z,30720.00
2022-10-23T09:30:24.160Z,32288.00
2022-10-23T09:31:24.212Z,32288.00
2022-10-23T09:32:24.132Z,35712.00
2022-10-23T09:33:24.122Z,35232.00
2022-10-23T09:34:24.091Z,34624.00
2022-10-23T09:35:24.082Z,35456.00
2022-10-23T09:36:24.106Z,37696.00
2022-10-23T09:37:24.104Z,37504.00
2022-10-23T09:38:24.073Z,36448.00
2022-10-23T09:39:24.045Z,35200.00
2022-10-23T09:40:24.048Z,32064.00
2022-10-23T09:41:24.034Z,35232.00
2022-10-23T09:42:23.992Z,34784.00
2022-10-23T09:43:23.992Z,34720.00
2022-10-23T09:44:23.989Z,28864.00
2022-10-23T09:45:23.974Z,26944.00
2022-10-23T09:46:23.995Z,28320.00
2022-10-23T09:47:23.952Z,29440.00
2022-10-23T09:48:23.945Z,31360.00
2022-10-23T09:49:23.915Z,36096.00
2022-10-23T09:50:23.921Z,36128.00
2022-10-23T09:51:23.957Z,33696.00
2022-10-23T09:52:23.925Z,33824.00
2022-10-23T09:53:23.933Z,34592.00
2022-10-23T09:54:23.857Z,32832.00
2022-10-23T09:55:23.858Z,28256.00
2022-10-23T09:56:24.784Z,22656.00
2022-10-23T09:57:23.952Z,20416.00
2022-10-23T09:58:23.829Z,24832.00
2022-10-23T09:59:23.882Z,34752.00
2022-10-23T10:00:23.802Z,33824.00
2022-10-23T10:01:23.926Z,32256.00
2022-10-23T10:02:23.820Z,34080.00
2022-10-23T10:03:23.780Z,34016.00
2022-10-23T10:04:23.773Z,31584.00
2022-10-23T10:05:23.761Z,29120.00
2022-10-23T10:06:23.776Z,30496.00
2022-10-23T10:07:23.735Z,29568.00
2022-10-23T10:08:23.715Z,28864.00
2022-10-23T10:09:23.726Z,26912.00
2022-10-23T10:10:23.699Z,22592.00
2022-10-23T10:11:23.707Z,22336.00
2022-10-23T10:12:23.663Z,24064.00
2022-10-23T10:13:23.709Z,22208.00
2022-10-23T10:14:23.688Z,24128.00
2022-10-23T10:15:23.635Z,25792.00
2022-10-23T10:16:23.629Z,27200.00
2022-10-23T10:17:23.606Z,26336.00
2022-10-23T10:18:23.616Z,23808.00
2022-10-23T10:19:23.627Z,20736.00
2022-10-23T10:20:23.581Z,15552.00
2022-10-23T10:21:23.571Z,18112.00
2022-10-23T10:22:23.549Z,12840.00
2022-10-23T10:23:23.582Z,10144.00
2022-10-23T10:24:23.548Z,10208.00
2022-10-23T10:25:23.538Z,10952.00
2022-10-23T10:26:23.540Z,12236.00
2022-10-23T10:27:23.527Z,12500.00
2022-10-23T10:28:23.519Z,13648.00
2022-10-23T10:29:23.481Z,21568.00
2022-10-23T10:30:23.473Z,25920.00
2022-10-23T10:31:23.451Z,21728.00
2022-10-23T10:32:23.457Z,24768.00
2022-10-23T10:33:23.488Z,24064.00
2022-10-23T10:34:23.422Z,21600.00
2022-10-23T10:35:23.429Z,20448.00
2022-10-23T10:36:23.434Z,25376.00
2022-10-23T10:37:23.373Z,22848.00
2022-10-23T10:38:23.418Z,21952.00
2022-10-23T10:39:23.364Z,24064.00
2022-10-23T10:40:23.391Z,28032.00
2022-10-23T10:41:23.325Z,26720.00
2022-10-23T10:42:23.327Z,26880.00
2022-10-23T10:43:23.335Z,24736.00
2022-10-23T10:44:23.316Z,19904.00
2022-10-23T10:45:23.277Z,24128.00
2022-10-23T10:46:23.280Z,22432.00
2022-10-23T10:47:23.287Z,23520.00
2022-10-23T10:48:23.256Z,23808.00
2022-10-23T10:49:23.257Z,26304.00
2022-10-23T10:50:23.271Z,23904.00
2022-10-23T10:51:23.261Z,26656.00
2022-10-23T10:52:23.210Z,26784.00
2022-10-23T10:53:23.209Z,25568.00
2022-10-23T10:54:23.224Z,27968.00
2022-10-23T10:55:23.179Z,28416.00
2022-10-23T10:56:23.192Z,27040.00
2022-10-23T10:57:23.185Z,30560.00
2022-10-23T10:58:23.192Z,33280.00
2022-10-23T10:59:23.159Z,27712.00
2022-10-23T11:00:23.137Z,27520.00
2022-10-23T11:01:23.246Z,29984.00
2022-10-23T11:02:23.209Z,28384.00
2022-10-23T11:03:23.084Z,25024.00
2022-10-23T11:04:23.074Z,25120.00
2022-10-23T11:05:23.075Z,24032.00
2022-10-23T11:06:23.064Z,26432.00
2022-10-23T11:07:23.076Z,24800.00
2022-10-23T11:08:23.056Z,19680.00
2022-10-23T11:09:23.052Z,22464.00
2022-10-23T11:10:23.017Z,27904.00
2022-10-23T11:11:22.997Z,27904.00
2022-10-23T11:12:23.018Z,26976.00
2022-10-23T11:13:22.966Z,30528.00
2022-10-23T11:14:22.969Z,31392.00
2022-10-23T11:15:22.992Z,33472.00
2022-10-23T11:16:22.939Z,30592.00
2022-10-23T11:17:22.979Z,24032.00
2022-10-23T11:18:22.919Z,21664.00
2022-10-23T11:19:22.900Z,21568.00
2022-10-23T11:20:22.904Z,23456.00
2022-10-23T11:21:22.895Z,19968.00
2022-10-23T11:22:22.899Z,19648.00
2022-10-23T11:23:22.891Z,17344.00
2022-10-23T11:24:22.866Z,16256.00
2022-10-23T11:25:22.868Z,21024.00
2022-10-23T11:26:22.844Z,29792.00
2022-10-23T11:27:22.823Z,28672.00
2022-10-23T11:28:22.808Z,29120.00
2022-10-23T11:29:22.848Z,30688.00
2022-10-23T11:30:22.797Z,31456.00
2022-10-23T11:31:22.864Z,31264.00
2022-10-23T11:32:22.842Z,24352.00
2022-10-23T11:33:22.769Z,23008.00
2022-10-23T11:34:22.770Z,26592.00
2022-10-23T11:35:22.726Z,20768.00
2022-10-23T11:36:22.761Z,19296.00
2022-10-23T11:37:22.728Z,18144.00
2022-10-23T11:38:22.688Z,18368.00
2022-10-23T11:39:22.752Z,18816.00
2022-10-23T11:40:22.682Z,26240.00
2022-10-23T11:41:25.643Z,25760.00
2022-10-23T11:42:22.661Z,26528.00
2022-10-23T11:43:22.641Z,21664.00
2022-10-23T11:44:22.649Z,16992.00
2022-10-23T11:45:22.651Z,17408.00
2022-10-23T11:46:22.639Z,17024.00
2022-10-23T11:47:22.602Z,15888.00
2022-10-23T11:48:22.602Z,16864.00
2022-10-23T11:49:22.594Z,17728.00
2022-10-23T11:50:22.580Z,18432.00
2022-10-23T11:51:22.592Z,17120.00
2022-10-23T11:52:22.554Z,16736.00
2022-10-23T11:53:23.132Z,17184.00
2022-10-23T11:54:22.525Z,17120.00
2022-10-23T11:55:22.517Z,16864.00
2022-10-23T11:56:22.484Z,16192.00
2022-10-23T11:57:22.562Z,16160.00
2022-10-23T11:58:22.478Z,15036.00
2022-10-23T11:59:22.504Z,14900.00
2022-10-23T12:00:22.450Z,14896.00
2022-10-23T12:01:22.561Z,14248.00
2022-10-23T12:02:22.541Z,14348.00
2022-10-23T12:03:22.423Z,14836.00
2022-10-23T12:04:22.458Z,15104.00
2022-10-23T12:05:22.397Z,14140.00
2022-10-23T12:06:22.372Z,14172.00
2022-10-23T12:07:22.387Z,13592.00
2022-10-23T12:08:22.372Z,13588.00
2022-10-23T12:09:22.381Z,13356.00
2022-10-23T12:10:22.344Z,12876.00
2022-10-23T12:11:25.506Z,12952.00
2022-10-23T12:12:23.324Z,12996.00
2022-10-23T12:13:22.532Z,13372.00
2022-10-23T12:14:22.295Z,13112.00
2022-10-23T12:15:22.285Z,13148.00
2022-10-23T12:16:22.292Z,13472.00
2022-10-23T12:17:22.242Z,13100.00
2022-10-23T12:18:22.257Z,12564.00
2022-10-23T12:19:22.286Z,12732.00
2022-10-23T12:20:22.231Z,12112.00
2022-10-23T12:21:22.238Z,12612.00
2022-10-23T12:22:22.295Z,12680.00
2022-10-23T12:23:22.228Z,11992.00
2022-10-23T12:24:22.209Z,11584.00
2022-10-23T12:25:22.157Z,11444.00
2022-10-23T12:26:22.189Z,10156.00
2022-10-23T12:27:22.139Z,9368.00
2022-10-23T12:28:22.128Z,8816.00
2022-10-23T12:29:22.127Z,8788.00
2022-10-23T12:30:22.128Z,9344.00
2022-10-23T12:31:22.099Z,9760.00
2022-10-23T12:32:22.123Z,9676.00
2022-10-23T12:33:22.099Z,9460.00
2022-10-23T12:34:22.111Z,9448.00
2022-10-23T12:35:22.071Z,9548.00
2022-10-23T12:36:22.074Z,9608.00